Time;durP1;ratioP1;P1;durP2;ratioP2;P2;SDS_P1;SDS_P2;PMS_P1;PMS_P2;Temp;Humidity;BMP_temperature;BMP_pressure;BME280_temperature;BME280_humidity;BME280_pressure;Samples;Min_cycle;Max_cycle;Signal;HPM_P1;HPM_P2
2022/12/06 00:01:13;;;;;;;4.65;3.08;;;5.00;99.90;;;;;;5016040;28;20026;-69
2022/12/06 00:03:40;;;;;;;7.22;3.63;;;5.00;99.90;;;;;;5015361;28;20091;-69
2022/12/06 00:06:15;;;;;;;6.43;3.78;;;4.90;99.90;;;;;;5015189;28;20030;-69
2022/12/06 00:08:41;;;;;;;7.38;3.50;;;5.00;99.90;;;;;;5014020;28;20029;-69
2022/12/06 00:11:10;;;;;;;5.63;3.72;;;5.00;99.90;;;;;;5014728;28;20029;-69
2022/12/06 00:13:36;;;;;;;7.03;3.58;;;5.00;99.90;;;;;;5013795;28;20030;-70
2022/12/06 00:16:03;;;;;;;5.32;3.40;;;5.00;99.90;;;;;;5015135;28;20026;-69
2022/12/06 00:18:32;;;;;;;5.57;3.30;;;5.10;99.90;;;;;;5014660;28;20022;-70
2022/12/06 00:21:08;;;;;;;5.28;3.42;;;5.00;99.90;;;;;;5015402;28;20038;-69
2022/12/06 00:23:38;;;;;;;5.97;3.13;;;5.00;99.90;;;;;;5014927;28;20101;-69
2022/12/06 00:26:05;;;;;;;7.43;3.67;;;5.00;99.90;;;;;;5014452;28;20018;-69
2022/12/06 00:28:31;;;;;;;6.80;3.83;;;5.00;99.90;;;;;;5013559;28;20080;-69
2022/12/06 00:30:58;;;;;;;7.22;3.65;;;5.00;99.90;;;;;;5014880;28;20030;-69
2022/12/06 00:33:24;;;;;;;6.25;3.63;;;5.00;99.90;;;;;;5015791;28;20044;-70
2022/12/06 00:35:57;;;;;;;7.30;3.50;;;4.90;99.90;;;;;;5015523;28;20029;-69
2022/12/06 00:38:23;;;;;;;7.28;3.83;;;4.90;99.90;;;;;;5014921;28;20056;-70
2022/12/06 00:40:50;;;;;;;7.38;3.83;;;5.00;99.90;;;;;;5013415;28;20029;-70
2022/12/06 00:43:15;;;;;;;7.10;3.65;;;5.00;99.90;;;;;;5014581;28;20038;-70
2022/12/06 00:45:42;;;;;;;6.68;3.33;;;5.00;99.90;;;;;;5013162;28;20068;-69
2022/12/06 00:48:07;;;;;;;6.32;3.47;;;5.00;99.90;;;;;;5013273;28;20029;-69
2022/12/06 00:50:33;;;;;;;5.22;3.20;;;5.00;99.90;;;;;;5015055;28;20026;-69
2022/12/06 00:52:58;;;;;;;5.97;3.47;;;4.90;99.90;;;;;;5013480;28;20044;-69
2022/12/06 00:55:24;;;;;;;6.03;3.38;;;4.90;99.90;;;;;;5014662;28;20037;-69
2022/12/06 00:57:49;;;;;;;7.47;3.78;;;4.90;99.90;;;;;;5013224;28;20022;-69
2022/12/06 01:00:15;;;;;;;6.45;3.47;;;4.90;99.90;;;;;;5013011;28;20076;-69
2022/12/06 01:02:41;;;;;;;6.45;3.60;;;4.90;99.90;;;;;;5014182;28;20022;-68
2022/12/06 01:05:07;;;;;;;6.88;3.45;;;4.90;99.90;;;;;;5014282;28;20075;-68
2022/12/06 01:07:32;;;;;;;5.32;3.60;;;4.80;99.90;;;;;;5014334;28;20026;-69
2022/12/06 01:09:58;;;;;;;7.20;3.75;;;4.90;99.90;;;;;;5014157;28;20076;-69
2022/12/06 01:12:23;;;;;;;6.85;3.42;;;4.80;99.90;;;;;;5012912;28;20022;-69
2022/12/06 01:14:49;;;;;;;6.22;3.75;;;4.80;99.90;;;;;;5012726;28;20488;-69
2022/12/06 01:17:14;;;;;;;4.35;3.38;;;4.70;99.90;;;;;;5012741;28;20022;-67
2022/12/06 01:19:40;;;;;;;5.32;3.70;;;4.80;99.90;;;;;;5012766;28;20029;-67
2022/12/06 01:22:05;;;;;;;6.95;3.65;;;4.70;99.90;;;;;;5013392;28;20030;-67
2022/12/06 01:24:31;;;;;;;6.13;3.85;;;4.80;99.90;;;;;;5013906;28;20040;-67
2022/12/06 01:26:56;;;;;;;6.38;4.05;;;4.80;99.90;;;;;;5012862;28;20025;-67
2022/12/06 01:29:22;;;;;;;6.47;3.50;;;4.80;99.90;;;;;;5012624;28;20440;-67
2022/12/06 01:31:47;;;;;;;6.75;3.30;;;4.80;99.90;;;;;;5013762;28;20022;-67
2022/12/06 01:34:15;;;;;;;8.98;3.40;;;4.80;99.90;;;;;;5012990;28;20026;-67
2022/12/06 01:36:40;;;;;;;4.25;2.92;;;4.80;99.90;;;;;;5012484;28;20029;-67
2022/12/06 01:39:09;;;;;;;6.07;3.15;;;4.80;99.90;;;;;;5012154;28;20100;-67
2022/12/06 01:41:36;;;;;;;5.90;3.20;;;4.80;99.90;;;;;;5012381;28;20026;-67
2022/12/06 01:44:03;;;;;;;5.60;3.42;;;4.80;99.90;;;;;;5012685;28;20033;-67
2022/12/06 01:46:42;;;;;;;5.53;3.85;;;4.70;99.90;;;;;;5012316;28;20018;-67
2022/12/06 01:49:18;;;;;;;6.50;3.70;;;4.60;99.90;;;;;;5012384;28;20034;-67
2022/12/06 01:51:57;;;;;;;6.13;3.70;;;4.60;99.90;;;;;;5012450;28;20030;-67
2022/12/06 01:54:23;;;;;;;5.53;3.63;;;4.60;99.90;;;;;;5013685;28;20037;-67
2022/12/06 01:56:51;;;;;;;5.88;3.55;;;4.70;99.90;;;;;;5012292;28;20084;-67
2022/12/06 01:59:18;;;;;;;7.53;3.72;;;4.70;99.90;;;;;;5013526;28;20022;-67
2022/12/06 02:01:45;;;;;;;6.47;3.88;;;4.70;99.90;;;;;;5012242;28;20080;-67
2022/12/06 02:04:11;;;;;;;7.40;3.75;;;4.60;99.90;;;;;;5012154;28;20029;-67
2022/12/06 02:06:38;;;;;;;5.80;3.38;;;4.60;99.90;;;;;;5012108;28;20018;-67
2022/12/06 02:09:06;;;;;;;5.57;3.30;;;4.60;99.90;;;;;;5013428;28;20026;-67
2022/12/06 02:11:32;;;;;;;5.40;3.60;;;4.60;99.90;;;;;;5013446;28;20030;-67
2022/12/06 02:13:58;;;;;;;5.25;3.35;;;4.70;99.90;;;;;;5013762;28;20030;-67
2022/12/06 02:16:55;;;;;;;6.80;3.80;;;4.70;99.90;;;;;;5013711;28;20092;-67
2022/12/06 02:19:35;;;;;;;7.57;4.15;;;4.70;99.90;;;;;;5012171;28;20053;-67
2022/12/06 02:22:16;;;;;;;7.88;3.38;;;4.60;99.90;;;;;;5012138;28;20029;-67
2022/12/06 02:25:09;;;;;;;6.40;3.53;;;4.50;99.90;;;;;;5013389;28;20022;-67
2022/12/06 02:28:12;;;;;;;6.60;3.95;;;4.40;99.90;;;;;;5012126;28;20029;-67
2022/12/06 02:30:53;;;;;;;6.90;3.50;;;4.50;99.90;;;;;;5012029;28;20080;-68
2022/12/06 02:33:50;;;;;;;4.85;3.50;;;4.60;99.90;;;;;;5012056;28;20029;-67
2022/12/06 02:36:40;;;;;;;5.93;3.72;;;4.60;99.90;;;;;;5011230;28;20038;-67
2022/12/06 02:39:11;;;;;;;5.20;3.30;;;4.50;99.90;;;;;;5012810;28;20350;-67
2022/12/06 02:41:55;;;;;;;6.90;3.50;;;4.50;99.90;;;;;;5013144;28;20080;-67
2022/12/06 02:44:38;;;;;;;8.05;3.55;;;4.50;99.90;;;;;;5013013;28;20281;-67
2022/12/06 02:47:07;;;;;;;4.38;3.00;;;4.50;99.90;;;;;;5011829;28;20120;-67
2022/12/06 02:49:36;;;;;;;4.53;2.97;;;4.40;99.90;;;;;;5014670;28;20018;-67
2022/12/06 02:52:03;;;;;;;4.80;3.20;;;4.40;99.90;;;;;;5016989;28;20026;-67
2022/12/06 02:54:29;;;;;;;5.35;3.40;;;4.40;99.90;;;;;;5016642;28;20038;-67
2022/12/06 02:56:54;;;;;;;5.70;3.53;;;4.50;99.90;;;;;;5015779;28;20044;-67
2022/12/06 02:59:21;;;;;;;5.53;3.40;;;4.40;99.90;;;;;;5016549;28;20115;-67
2022/12/06 03:01:51;;;;;;;6.45;3.25;;;4.40;99.90;;;;;;5015311;28;20037;-67
2022/12/06 03:04:48;;;;;;;4.90;3.17;;;4.40;99.90;;;;;;5016425;28;20057;-67
2022/12/06 03:07:32;;;;;;;8.20;3.80;;;4.30;99.90;;;;;;5016400;28;20023;-67
2022/12/06 03:10:28;;;;;;;5.43;3.40;;;4.30;99.90;;;;;;5015200;28;20172;-67
2022/12/06 03:12:59;;;;;;;6.88;4.40;;;4.10;99.90;;;;;;5016684;28;20026;-67
2022/12/06 03:16:00;;;;;;;6.47;4.10;;;4.10;99.90;;;;;;5015018;28;20489;-68
2022/12/06 03:18:38;;;;;;;7.32;3.85;;;4.10;99.90;;;;;;5016275;28;20030;-67
2022/12/06 03:21:24;;;;;;;5.75;3.53;;;4.10;99.90;;;;;;5016422;28;20026;-67
2022/12/06 03:23:50;;;;;;;4.82;3.55;;;4.10;99.90;;;;;;5016352;28;20030;-67
2022/12/06 03:26:22;;;;;;;5.68;3.58;;;4.10;99.90;;;;;;5015987;28;20037;-68
2022/12/06 03:28:51;;;;;;;4.88;2.97;;;4.20;99.90;;;;;;5016397;28;20106;-67
2022/12/06 03:31:21;;;;;;;5.72;3.20;;;4.10;99.90;;;;;;5014729;28;20068;-67
2022/12/06 03:33:59;;;;;;;6.65;4.18;;;4.10;99.90;;;;;;5015558;28;20026;-67
2022/12/06 03:36:27;;;;;;;5.80;3.67;;;4.20;99.90;;;;;;5014625;28;20030;-67
2022/12/06 03:38:57;;;;;;;7.03;3.90;;;4.20;99.90;;;;;;5015687;28;20036;-67
2022/12/06 03:41:27;;;;;;;8.43;4.22;;;4.20;99.90;;;;;;5014673;28;20026;-67
2022/12/06 03:43:53;;;;;;;7.57;3.70;;;4.30;99.90;;;;;;5014504;28;20056;-69
2022/12/06 03:46:34;;;;;;;7.63;4.05;;;4.30;99.90;;;;;;5014880;28;20068;-69
2022/12/06 03:49:37;;;;;;;6.32;3.92;;;4.40;99.90;;;;;;5014549;28;20049;-69
2022/12/06 03:52:03;;;;;;;7.38;3.60;;;4.40;99.90;;;;;;4920804;29;20028;-69
2022/12/06 03:54:28;;;;;;;6.63;4.00;;;4.40;99.90;;;;;;4920199;29;20035;-69
2022/12/06 03:56:54;;;;;;;7.35;4.45;;;4.50;99.90;;;;;;4919955;29;20595;-69
2022/12/06 03:59:19;;;;;;;8.55;4.30;;;4.50;99.90;;;;;;4920079;29;20055;-69
2022/12/06 04:01:45;;;;;;;6.68;3.90;;;4.50;99.90;;;;;;4919490;29;20035;-69
2022/12/06 04:04:11;;;;;;;7.55;4.25;;;4.50;99.90;;;;;;4920204;29;20051;-69
2022/12/06 04:06:36;;;;;;;7.63;4.30;;;4.50;99.90;;;;;;4919872;29;20024;-69
2022/12/06 04:11:46;;;;;;;7.88;4.57;;;4.50;99.90;;;;;;4938042;29;20064;-69
2022/12/06 04:14:11;;;;;;;7.72;4.45;;;4.60;99.90;;;;;;4920278;29;20047;-70
2022/12/06 04:19:20;;;;;;;6.93;4.38;;;4.60;99.90;;;;;;4936266;29;20054;-69
2022/12/06 04:24:30;;;;;;;8.73;4.93;;;4.50;99.90;;;;;;4935937;29;20094;-69
2022/12/06 04:40:40;;;;;;;10.70;5.10;;;4.20;99.90;;;;;;5015040;28;20037;-69
2022/12/06 04:45:52;;;;;;;9.13;5.22;;;4.30;99.90;;;;;;5015007;28;20072;-69
2022/12/06 04:48:17;;;;;;;8.85;5.00;;;4.40;99.90;;;;;;5014563;28;20022;-69
2022/12/06 04:50:50;;;;;;;10.80;5.18;;;4.40;99.90;;;;;;5014535;28;20026;-69
2022/12/06 04:53:16;;;;;;;9.82;5.38;;;4.40;99.90;;;;;;5013197;28;20026;-69
2022/12/06 04:55:48;;;;;;;8.35;5.07;;;4.40;99.90;;;;;;5014375;28;20485;-69
2022/12/06 04:58:14;;;;;;;11.32;5.63;;;4.40;99.90;;;;;;5014415;28;20137;-69
2022/12/06 05:00:43;;;;;;;14.88;6.47;;;4.40;99.90;;;;;;5013321;28;20030;-69
2022/12/06 05:03:10;;;;;;;8.68;5.28;;;4.40;99.90;;;;;;5013291;28;20064;-69
2022/12/06 05:05:36;;;;;;;10.10;5.63;;;4.50;99.90;;;;;;5012936;28;20091;-69
2022/12/06 05:08:02;;;;;;;14.48;6.00;;;4.50;99.90;;;;;;5012962;28;20515;-69
2022/12/06 05:10:27;;;;;;;9.95;5.15;;;4.60;99.90;;;;;;5013244;28;20046;-69
2022/12/06 05:12:53;;;;;;;9.52;5.47;;;4.60;99.90;;;;;;5012033;28;20041;-69
2022/12/06 05:15:18;;;;;;;9.95;4.55;;;4.60;99.90;;;;;;5013121;28;20025;-69
2022/12/06 05:17:44;;;;;;;10.77;5.50;;;4.60;99.90;;;;;;5014102;28;20025;-69
2022/12/06 05:20:10;;;;;;;7.88;5.18;;;4.50;99.90;;;;;;5012803;28;20025;-69
2022/12/06 05:22:35;;;;;;;9.68;5.38;;;4.50;99.90;;;;;;5014234;28;20045;-69
2022/12/06 05:25:01;;;;;;;7.90;5.20;;;4.60;99.90;;;;;;5012948;28;20112;-69
2022/12/06 05:27:26;;;;;;;7.65;4.53;;;4.70;99.90;;;;;;5013278;28;20025;-69
2022/12/06 05:29:52;;;;;;;6.97;4.63;;;4.70;99.90;;;;;;5013925;28;20026;-69
2022/12/06 05:32:17;;;;;;;7.30;4.68;;;4.60;99.90;;;;;;5014112;28;20026;-69
2022/12/06 05:34:43;;;;;;;10.98;5.80;;;4.50;99.90;;;;;;5012562;28;20025;-69
2022/12/06 05:37:08;;;;;;;8.85;5.60;;;4.50;99.90;;;;;;5014017;28;20022;-69
2022/12/06 05:39:34;;;;;;;8.82;5.35;;;4.50;99.90;;;;;;5013053;28;20022;-69
2022/12/06 05:41:59;;;;;;;9.50;5.63;;;4.50;99.90;;;;;;5013985;28;20045;-69
2022/12/06 05:44:25;;;;;;;9.18;5.22;;;4.50;99.90;;;;;;5014161;28;20033;-69
2022/12/06 05:46:50;;;;;;;10.73;6.15;;;4.60;99.90;;;;;;5012309;28;20033;-69
2022/12/06 05:49:16;;;;;;;8.43;5.20;;;4.60;99.90;;;;;;5013488;28;20101;-69
2022/12/06 05:51:41;;;;;;;17.83;5.60;;;4.50;99.90;;;;;;5013630;28;20029;-69
2022/12/06 05:54:07;;;;;;;8.02;4.88;;;4.60;99.90;;;;;;5013210;28;20025;-69
2022/12/06 05:56:33;;;;;;;9.93;5.90;;;4.60;99.90;;;;;;5027594;23;20042;-67
2022/12/06 05:58:58;;;;;;;8.85;5.55;;;4.60;99.90;;;;;;4993930;28;20067;-68
2022/12/06 06:01:24;;;;;;;9.63;5.25;;;4.60;99.90;;;;;;4992525;28;20030;-68
2022/12/06 06:03:49;;;;;;;9.80;5.60;;;4.70;99.90;;;;;;4994223;28;20026;-68
2022/12/06 06:06:15;;;;;;;9.82;5.10;;;4.60;99.90;;;;;;5000199;28;20049;-68
2022/12/06 06:08:40;;;;;;;9.05;5.32;;;4.60;99.90;;;;;;5028619;28;20061;-68
2022/12/06 06:11:06;;;;;;;11.95;6.10;;;4.70;99.90;;;;;;5028299;28;20025;-68
2022/12/06 06:13:31;;;;;;;16.10;6.38;;;4.60;99.90;;;;;;5012419;28;20089;-68
2022/12/06 06:15:57;;;;;;;12.68;6.20;;;4.60;99.90;;;;;;5028461;28;20049;-68
2022/12/06 06:18:23;;;;;;;8.40;5.18;;;4.60;99.90;;;;;;5029340;28;20113;-68
2022/12/06 06:20:55;;;;;;;10.45;5.70;;;4.60;99.90;;;;;;5029244;28;20080;-68
2022/12/06 06:23:21;;;;;;;8.05;4.75;;;4.70;99.90;;;;;;5028313;28;20026;-68
2022/12/06 06:25:47;;;;;;;9.75;5.07;;;4.70;99.90;;;;;;5031861;28;20022;-68
2022/12/06 06:28:12;;;;;;;9.82;5.55;;;4.70;99.90;;;;;;5032375;28;20072;-67
2022/12/06 06:30:38;;;;;;;7.20;4.45;;;4.70;99.90;;;;;;5017394;28;20022;-68
2022/12/06 06:33:03;;;;;;;7.60;4.88;;;4.70;99.90;;;;;;5016689;28;20025;-68
2022/12/06 06:35:29;;;;;;;12.07;5.95;;;4.70;99.90;;;;;;5016089;28;20126;-68
2022/12/06 06:37:54;;;;;;;9.38;5.25;;;4.70;99.90;;;;;;5032232;28;20033;-68
2022/12/06 06:40:21;;;;;;;9.80;5.75;;;4.70;99.90;;;;;;5032150;28;20037;-68
2022/12/06 06:42:46;;;;;;;7.90;4.75;;;4.70;99.90;;;;;;5032385;28;20026;-68
2022/12/06 06:45:12;;;;;;;6.50;4.18;;;4.70;99.90;;;;;;5017112;28;20018;-68
2022/12/06 06:47:38;;;;;;;11.00;5.13;;;4.70;99.90;;;;;;5016685;28;20089;-68
2022/12/06 06:50:05;;;;;;;11.93;4.88;;;4.70;99.90;;;;;;5017126;28;20086;-68
2022/12/06 06:52:31;;;;;;;8.60;5.18;;;4.60;99.90;;;;;;5031943;28;20110;-68
2022/12/06 06:54:57;;;;;;;10.65;5.78;;;4.60;99.90;;;;;;5031829;28;20054;-68
2022/12/06 06:57:23;;;;;;;9.48;5.35;;;4.60;99.90;;;;;;5032193;28;20040;-68
2022/12/06 06:59:49;;;;;;;8.35;5.10;;;4.60;99.90;;;;;;5016590;28;20026;-68
2022/12/06 07:02:16;;;;;;;10.18;5.35;;;4.60;99.90;;;;;;5032044;28;20068;-68
2022/12/06 07:04:43;;;;;;;8.30;5.25;;;4.70;99.90;;;;;;5016433;28;20113;-68
2022/12/06 07:07:09;;;;;;;8.70;4.75;;;4.70;99.90;;;;;;5031629;28;20077;-68
2022/12/06 07:09:36;;;;;;;8.43;4.65;;;4.70;99.90;;;;;;5031687;28;20033;-68
2022/12/06 07:12:01;;;;;;;8.50;4.72;;;4.70;99.90;;;;;;5031587;28;20034;-68
2022/12/06 07:14:27;;;;;;;7.70;4.57;;;4.80;99.90;;;;;;5031547;28;20099;-68
2022/12/06 07:16:52;;;;;;;7.20;4.50;;;4.80;99.90;;;;;;5031428;28;20042;-68
2022/12/06 07:19:18;;;;;;;8.07;4.45;;;4.70;99.90;;;;;;5031505;28;20026;-68
2022/12/06 07:21:43;;;;;;;6.57;4.47;;;4.70;99.90;;;;;;5031385;28;20033;-68
2022/12/06 07:24:09;;;;;;;9.45;4.93;;;4.60;99.90;;;;;;5016131;28;20018;-68
2022/12/06 07:26:35;;;;;;;11.77;5.55;;;4.60;99.90;;;;;;5031263;28;20121;-68
2022/12/06 07:29:00;;;;;;;46.85;18.65;;;4.60;99.90;;;;;;5014835;28;20022;-68
2022/12/06 07:31:28;;;;;;;11.57;5.85;;;4.60;99.90;;;;;;5014782;28;20064;-68
2022/12/06 07:33:59;;;;;;;7.05;3.88;;;4.60;99.90;;;;;;5031209;28;20061;-68
2022/12/06 07:36:27;;;;;;;7.25;4.78;;;4.70;99.90;;;;;;5014929;28;20034;-68
2022/12/06 07:38:54;;;;;;;8.90;5.00;;;4.70;99.90;;;;;;5015949;28;20030;-68
2022/12/06 07:46:55;;;;;;;7.63;5.00;;;4.70;99.90;;;;;;5016198;28;20042;-68
2022/12/06 07:49:21;;;;;;;8.68;4.55;;;4.70;99.90;;;;;;5016014;28;20358;-68
2022/12/06 07:51:46;;;;;;;7.80;3.95;;;4.60;99.90;;;;;;5031292;28;20080;-68
2022/12/06 07:54:13;;;;;;;11.82;4.32;;;4.50;99.90;;;;;;5031207;28;20081;-68
2022/12/06 07:56:40;;;;;;;7.68;4.20;;;4.50;99.90;;;;;;5015689;28;20033;-68
2022/12/06 07:59:05;;;;;;;13.93;6.97;;;4.50;99.90;;;;;;5030849;28;20102;-68
2022/12/06 08:01:31;;;;;;;12.48;6.82;;;4.50;99.90;;;;;;5031168;28;20532;-68
2022/12/06 08:04:02;;;;;;;7.78;3.75;;;4.50;99.90;;;;;;5030583;28;20465;-68
2022/12/06 08:06:29;;;;;;;6.80;3.72;;;4.50;99.90;;;;;;5015413;28;20109;-68
2022/12/06 08:08:54;;;;;;;6.93;3.90;;;4.50;99.90;;;;;;5030970;28;20022;-68
2022/12/06 08:11:21;;;;;;;7.30;3.78;;;4.40;99.90;;;;;;5015019;28;20037;-68
2022/12/06 08:13:47;;;;;;;9.15;4.88;;;4.40;99.90;;;;;;5031984;28;20026;-68
2022/12/06 08:16:13;;;;;;;5.57;3.70;;;4.40;99.90;;;;;;5030942;28;20037;-68
2022/12/06 08:18:39;;;;;;;6.80;3.42;;;4.50;99.90;;;;;;5031053;28;20115;-68
2022/12/06 08:21:05;;;;;;;8.32;3.85;;;4.40;99.90;;;;;;5016370;28;20036;-68
2022/12/06 08:23:32;;;;;;;8.27;4.20;;;4.50;99.90;;;;;;5015958;28;20362;-68
2022/12/06 08:26:02;;;;;;;7.65;3.47;;;4.40;99.90;;;;;;5030818;28;20022;-68
2022/12/06 08:28:29;;;;;;;6.97;3.45;;;4.50;99.90;;;;;;5015952;28;20030;-68
2022/12/06 08:30:56;;;;;;;7.90;4.35;;;4.60;99.90;;;;;;5031109;28;20028;-68
2022/12/06 08:33:22;;;;;;;15.10;5.93;;;4.60;99.90;;;;;;5030824;28;20030;-68
2022/12/06 08:35:49;;;;;;;9.65;4.28;;;4.70;99.90;;;;;;5030817;28;20021;-68
2022/12/06 08:38:15;;;;;;;14.93;3.95;;;4.70;99.90;;;;;;5030756;28;20501;-68
2022/12/06 08:40:40;;;;;;;9.88;4.57;;;4.80;99.90;;;;;;5015687;28;20026;-68
2022/12/06 08:43:07;;;;;;;9.88;4.75;;;4.80;99.90;;;;;;5015252;28;20033;-68
2022/12/06 08:45:33;;;;;;;10.27;5.10;;;4.80;99.90;;;;;;5029786;28;20094;-68
2022/12/06 08:47:58;;;;;;;10.73;3.83;;;4.80;99.90;;;;;;5030449;28;20026;-68
2022/12/06 08:50:24;;;;;;;10.65;4.72;;;4.80;99.90;;;;;;5030575;28;20018;-68
2022/12/06 08:52:49;;;;;;;8.60;4.85;;;4.80;99.90;;;;;;5030051;28;20025;-68
2022/12/06 08:55:15;;;;;;;10.98;5.13;;;4.90;99.90;;;;;;5029832;28;20029;-68
2022/12/06 08:57:40;;;;;;;7.30;4.07;;;4.80;99.90;;;;;;5030108;28;20037;-68
2022/12/06 09:00:07;;;;;;;14.02;5.30;;;4.80;99.90;;;;;;5030853;28;20101;-68
2022/12/06 09:02:33;;;;;;;10.65;4.78;;;4.80;99.90;;;;;;5029498;28;20053;-68
2022/12/06 09:04:58;;;;;;;11.10;4.78;;;4.90;99.90;;;;;;5014854;28;20053;-68
2022/12/06 09:07:25;;;;;;;18.17;5.95;;;4.90;99.90;;;;;;5014466;28;20097;-68
2022/12/06 09:09:52;;;;;;;15.02;5.93;;;4.90;99.90;;;;;;5030305;28;20024;-68
2022/12/06 09:12:18;;;;;;;8.30;4.22;;;4.90;99.90;;;;;;5029668;28;20104;-68
2022/12/06 09:14:43;;;;;;;8.73;4.68;;;4.90;99.90;;;;;;5029372;28;20117;-68
2022/12/06 09:17:09;;;;;;;6.72;3.75;;;4.90;99.90;;;;;;5014125;28;20105;-68
2022/12/06 09:19:35;;;;;;;8.82;4.70;;;4.90;99.90;;;;;;5029325;28;20084;-68
2022/12/06 09:22:00;;;;;;;6.35;3.97;;;5.00;99.90;;;;;;5014305;28;20059;-68
2022/12/06 09:24:26;;;;;;;9.55;3.70;;;5.10;99.90;;;;;;5013915;28;20089;-68
2022/12/06 09:26:51;;;;;;;7.95;4.03;;;5.10;99.90;;;;;;5012988;28;20068;-68
2022/12/06 09:29:17;;;;;;;8.00;3.10;;;5.20;99.90;;;;;;5030201;28;20076;-68
2022/12/06 09:31:43;;;;;;;6.38;3.65;;;5.10;99.90;;;;;;5013938;28;20025;-67
2022/12/06 09:34:10;;;;;;;8.77;3.90;;;5.10;99.90;;;;;;5029026;28;20096;-67
2022/12/06 09:36:52;;;;;;;7.55;4.20;;;5.20;99.90;;;;;;5029185;28;20044;-67
2022/12/06 09:39:21;;;;;;;;;;;5.10;99.90;;;;;;5014222;28;20132;-67
2022/12/06 09:42:06;;;;;;;9.35;3.25;;;5.10;99.90;;;;;;5013673;28;19906;-67
2022/12/06 09:44:58;;;;;;;6.78;3.30;;;5.00;99.90;;;;;;5013583;28;20072;-67
2022/12/06 09:48:02;;;;;;;6.10;3.53;;;5.00;99.90;;;;;;5013674;28;20021;-67
2022/12/06 09:50:55;;;;;;;13.77;3.17;;;5.10;99.90;;;;;;5013224;28;20103;-67
2022/12/06 09:53:21;;;;;;;10.80;3.92;;;5.20;99.90;;;;;;5013926;28;20022;-68
2022/12/06 09:56:19;;;;;;;5.80;3.33;;;5.20;99.90;;;;;;5013433;28;20053;-68
2022/12/06 09:59:13;;;;;;;5.50;3.13;;;5.30;99.90;;;;;;5029111;28;20026;-68
2022/12/06 10:01:41;;;;;;;7.63;3.67;;;5.40;99.90;;;;;;5028757;28;20026;-68
2022/12/06 10:04:25;;;;;;;5.53;3.03;;;5.30;99.90;;;;;;5029564;28;20064;-67
2022/12/06 10:07:09;;;;;;;6.72;4.00;;;5.30;99.90;;;;;;5029104;28;20029;-66
2022/12/06 10:10:00;;;;;;;9.88;3.95;;;5.30;99.90;;;;;;5028655;28;20046;-67
2022/12/06 10:12:51;;;;;;;7.50;4.10;;;5.30;99.90;;;;;;5028677;28;20022;-66
2022/12/06 10:15:45;;;;;;;7.28;3.08;;;5.40;99.90;;;;;;5012277;28;20029;-67
2022/12/06 10:18:24;;;;;;;5.47;2.80;;;5.40;99.90;;;;;;5013409;28;20057;-68
2022/12/06 10:20:54;;;;;;;4.15;2.75;;;5.30;99.90;;;;;;5013621;28;20037;-67
2022/12/06 10:23:35;;;;;;;5.78;3.10;;;5.30;99.90;;;;;;5012042;28;20025;-67
2022/12/06 10:26:10;;;;;;;6.53;3.03;;;5.40;99.90;;;;;;5028344;28;20485;-67
2022/12/06 10:28:43;;;;;;;4.55;2.65;;;5.40;99.90;;;;;;5029359;28;20029;-67
2022/12/06 10:31:32;;;;;;;7.10;3.45;;;5.50;99.90;;;;;;5028458;28;20113;-68
2022/12/06 10:34:06;;;;;;;6.85;3.30;;;5.50;99.90;;;;;;5028513;28;20500;-67
2022/12/06 10:36:41;;;;;;;3.72;2.47;;;5.50;99.90;;;;;;5028953;28;20022;-68
2022/12/06 10:39:22;;;;;;;6.65;2.80;;;5.60;99.90;;;;;;5029282;28;20041;-68
2022/12/06 10:42:09;;;;;;;9.30;3.28;;;5.70;99.90;;;;;;5028488;28;20022;-68
2022/12/06 10:44:44;;;;;;;6.22;3.47;;;5.70;99.90;;;;;;5029167;28;20076;-68
2022/12/06 10:47:13;;;;;;;5.72;3.25;;;5.70;99.90;;;;;;5028300;28;20109;-68
2022/12/06 10:50:01;;;;;;;6.40;3.17;;;5.70;99.90;;;;;;5013697;28;20022;-69
2022/12/06 10:52:49;;;;;;;5.88;2.65;;;5.70;99.90;;;;;;5013640;28;20026;-68
2022/12/06 10:55:30;;;;;;;4.38;2.90;;;5.70;99.90;;;;;;5012967;28;20026;-68
2022/12/06 10:58:36;;;;;;;5.17;2.53;;;5.60;99.90;;;;;;5028348;28;20142;-68
2022/12/06 11:01:08;;;;;;;6.28;2.72;;;5.60;99.90;;;;;;5012989;28;20030;-68
2022/12/06 11:03:43;;;;;;;3.72;2.25;;;5.60;99.90;;;;;;5013093;28;20096;-68
2022/12/06 11:06:13;;;;;;;6.80;2.85;;;5.60;99.90;;;;;;5028327;28;20057;-68
2022/12/06 11:08:44;;;;;;;3.42;2.15;;;5.80;99.90;;;;;;5027987;28;20022;-69
2022/12/06 11:11:14;;;;;;;5.63;2.45;;;6.00;99.90;;;;;;5029666;28;20026;-69
2022/12/06 11:13:48;;;;;;;4.63;2.72;;;6.10;99.90;;;;;;5032274;28;20081;-69
2022/12/06 11:16:25;;;;;;;4.78;2.85;;;6.10;99.90;;;;;;5014984;28;20076;-68
2022/12/06 11:18:56;;;;;;;5.65;3.15;;;6.20;99.90;;;;;;5016281;28;20022;-68
2022/12/06 11:21:42;;;;;;;5.10;2.30;;;6.10;99.90;;;;;;5016306;28;20030;-68
2022/12/06 11:24:14;;;;;;;3.47;2.85;;;6.00;99.90;;;;;;5016218;28;20052;-68
2022/12/06 11:26:51;;;;;;;;;;;6.10;99.90;;;;;;5032393;28;20026;-68
2022/12/06 11:29:17;;;;;;;6.57;2.38;;;6.10;99.90;;;;;;5014893;28;19915;-67
2022/12/06 11:31:49;;;;;;;5.20;2.08;;;6.20;99.90;;;;;;5016079;28;20022;-67
2022/12/06 11:34:31;;;;;;;;;;;6.10;99.90;;;;;;5032638;28;20026;-67
2022/12/06 11:36:58;;;;;;;;;;;6.10;99.90;;;;;;5016339;28;19913;-67
2022/12/06 11:39:24;;;;;;;9.73;2.88;;;6.10;99.90;;;;;;5015602;28;19906;-67
2022/12/06 11:41:54;;;;;;;4.45;2.70;;;6.10;99.90;;;;;;5015934;28;20440;-67
2022/12/06 11:44:24;;;;;;;4.30;2.10;;;6.10;99.90;;;;;;5031078;28;20057;-67
2022/12/06 11:46:57;;;;;;;10.20;2.47;;;6.10;99.90;;;;;;5015771;28;20052;-67
2022/12/06 11:49:30;;;;;;;5.35;2.58;;;6.10;99.90;;;;;;5031872;28;20028;-67
2022/12/06 11:51:58;;;;;;;3.75;2.40;;;6.10;99.90;;;;;;5015813;28;20030;-67
2022/12/06 11:54:32;;;;;;;4.68;2.72;;;6.00;99.90;;;;;;5030833;28;20026;-67
2022/12/06 11:57:08;;;;;;;6.88;3.03;;;6.00;99.90;;;;;;5030980;28;20042;-66
2022/12/06 11:59:34;;;;;;;5.63;2.38;;;6.20;99.90;;;;;;5015471;28;20359;-66
2022/12/06 12:02:02;;;;;;;3.40;2.08;;;6.20;99.90;;;;;;5031039;28;20173;-66
2022/12/06 12:04:47;;;;;;;3.38;2.00;;;6.20;99.90;;;;;;5015655;28;20109;-67
2022/12/06 12:07:17;;;;;;;2.30;1.65;;;6.10;99.90;;;;;;5015391;28;20022;-67
2022/12/06 12:10:21;;;;;;;4.20;1.60;;;6.20;99.90;;;;;;5030421;28;20036;-66
2022/12/06 12:15:33;;;;;;;2.83;1.63;;;6.20;99.90;;;;;;5015704;28;20037;-66
2022/12/06 12:18:00;;;;;;;5.78;1.38;;;6.20;99.90;;;;;;5013760;28;20030;-67
2022/12/06 12:20:38;;;;;;;4.15;2.40;;;6.20;99.90;;;;;;5014042;28;20056;-67
2022/12/06 12:23:13;;;;;;;5.72;2.42;;;6.20;99.90;;;;;;5014671;28;20036;-67
2022/12/06 12:25:41;;;;;;;2.20;1.60;;;6.30;99.90;;;;;;5015416;28;20026;-67
2022/12/06 12:28:37;;;;;;;3.67;2.13;;;6.40;99.90;;;;;;5015152;28;20021;-67
2022/12/06 12:31:19;;;;;;;1.83;1.30;;;6.50;99.90;;;;;;4973851;28;20037;-67
2022/12/06 12:33:45;;;;;;;5.88;1.70;;;6.40;99.90;;;;;;4973846;28;20065;-67
2022/12/06 12:36:23;;;;;;;2.22;1.63;;;6.20;99.90;;;;;;4973978;28;20066;-66
2022/12/06 12:38:54;;;;;;;8.35;1.80;;;6.30;99.90;;;;;;4973794;28;20082;-67
2022/12/06 12:41:31;;;;;;;4.25;1.73;;;6.50;99.90;;;;;;4973853;28;20034;-67
2022/12/06 12:44:04;;;;;;;3.13;1.88;;;6.50;99.90;;;;;;4958201;28;20038;-67
2022/12/06 12:46:35;;;;;;;3.70;1.98;;;6.40;99.90;;;;;;4973898;28;20027;-67
2022/12/06 12:49:24;;;;;;;3.03;1.85;;;6.40;99.90;;;;;;4957873;28;20027;-66
2022/12/06 12:51:50;;;;;;;2.47;1.80;;;6.60;99.90;;;;;;4973849;28;20114;-67
2022/12/06 12:54:21;;;;;;;3.70;1.70;;;6.50;99.90;;;;;;4973881;28;20062;-66
2022/12/06 12:56:47;;;;;;;7.87;2.47;;;6.50;99.90;;;;;;4973713;28;20047;-66
2022/12/06 12:59:16;;;;;;;3.40;1.88;;;6.50;99.90;;;;;;4957603;28;20066;-66
2022/12/06 13:01:59;;;;;;;4.97;2.15;;;6.50;99.90;;;;;;4974017;28;20122;-66
2022/12/06 13:04:41;;;;;;;3.28;2.22;;;6.30;99.90;;;;;;4974188;28;20034;-66
2022/12/06 13:07:11;;;;;;;4.43;2.38;;;6.20;99.90;;;;;;4989461;28;20041;-66
2022/12/06 13:09:44;;;;;;;4.85;2.72;;;6.20;99.90;;;;;;5013108;28;20029;-66
2022/12/06 13:12:30;;;;;;;5.15;2.45;;;6.10;99.90;;;;;;5012959;28;20037;-66
2022/12/06 13:15:17;;;;;;;5.32;2.58;;;6.10;99.90;;;;;;5002583;28;20037;-66
2022/12/06 13:17:49;;;;;;;6.20;2.95;;;6.10;99.90;;;;;;5013005;28;20022;-66
2022/12/06 13:20:22;;;;;;;6.13;3.05;;;6.10;99.90;;;;;;5012890;28;20025;-66
2022/12/06 13:22:52;;;;;;;10.68;4.13;;;6.00;99.90;;;;;;5014332;28;20033;-66
2022/12/06 13:25:17;;;;;;;6.03;2.78;;;6.10;99.90;;;;;;5013998;28;20041;-66
2022/12/06 13:27:47;;;;;;;4.25;2.67;;;6.00;99.90;;;;;;5013891;28;20030;-66
2022/12/06 13:30:20;;;;;;;8.23;3.55;;;6.10;99.90;;;;;;5014256;28;20049;-66
2022/12/06 13:32:55;;;;;;;8.30;2.78;;;6.20;99.90;;;;;;5013412;28;20030;-66
2022/12/06 13:35:24;;;;;;;4.75;2.67;;;6.20;99.90;;;;;;5012017;28;20025;-67
2022/12/06 13:37:57;;;;;;;4.32;2.80;;;6.20;99.90;;;;;;5012851;28;20037;-66
2022/12/06 13:40:32;;;;;;;4.35;2.42;;;6.20;99.90;;;;;;5014147;28;20026;-66
2022/12/06 13:43:03;;;;;;;3.97;2.17;;;6.30;99.90;;;;;;5013590;28;20026;-66
2022/12/06 13:45:36;;;;;;;4.75;2.58;;;6.30;99.90;;;;;;5013285;28;20072;-66
2022/12/06 13:48:01;;;;;;;4.55;2.80;;;6.20;99.90;;;;;;5012484;28;20018;-66
2022/12/06 13:50:47;;;;;;;5.72;3.00;;;6.10;99.90;;;;;;5012698;28;20025;-66